Time;durP1;ratioP1;P1;durP2;ratioP2;P2;SDS_P1;SDS_P2;PMS_P1;PMS_P2;Temp;Humidity;BMP_temperature;BMP_pressure;BME280_temperature;BME280_humidity;BME280_pressure;Samples;Min_cycle;Max_cycle;Signal;HPM_P1;HPM_P2
2023/11/12 00:00:09;;;;;;;5.80;2.00;;;;;;;3.89;83.15;94110.45;106613;1275;25370;-79
2023/11/12 00:02:58;;;;;;;0.30;0.00;;;;;;;3.92;83.55;94108.66;106619;1274;22522;-80
2023/11/12 00:05:26;;;;;;;0.10;0.10;;;;;;;3.96;83.26;94103.73;106653;1275;22544;-80
2023/11/12 00:07:54;;;;;;;0.00;0.00;;;;;;;3.96;82.96;94107.55;106620;1275;24277;-78
2023/11/12 00:10:23;;;;;;;0.00;0.00;;;;;;;3.88;82.14;94103.33;106674;1275;22517;-80
2023/11/12 00:12:51;;;;;;;0.00;0.00;;;;;;;3.85;82.81;94106.69;106675;1274;24250;-79
2023/11/12 00:15:19;;;;;;;0.00;0.00;;;;;;;3.85;82.97;94105.64;106625;1275;22797;-80
2023/11/12 00:17:47;;;;;;;0.00;0.00;;;;;;;3.83;82.89;94099.42;106627;1274;25564;-80
2023/11/12 00:20:17;;;;;;;0.00;0.00;;;;;;;3.79;83.14;94107.30;106718;1274;22513;-79
2023/11/12 00:22:46;;;;;;;0.00;0.00;;;;;;;3.73;82.87;94107.94;106665;1275;22518;-79
2023/11/12 00:25:14;;;;;;;0.00;0.00;;;;;;;3.74;82.61;94104.27;106670;1263;25493;-78
2023/11/12 00:27:44;;;;;;;0.00;0.00;;;;;;;3.71;82.86;94105.71;106662;1275;24399;-80
2023/11/12 00:30:13;;;;;;;0.00;0.00;;;;;;;3.71;83.32;94108.13;106648;1275;25430;-80
2023/11/12 00:32:42;;;;;;;0.00;0.00;;;;;;;3.71;83.33;94114.05;106650;1264;25637;-81
2023/11/12 00:35:13;;;;;;;0.10;0.10;;;;;;;3.71;83.70;94112.50;106610;1275;22524;-80
2023/11/12 00:37:42;;;;;;;0.00;0.00;;;;;;;3.72;83.20;94117.50;106655;1274;25451;-79
2023/11/12 00:40:13;;;;;;;0.00;0.00;;;;;;;3.72;83.02;94112.11;106615;1275;25413;-77
2023/11/12 00:42:42;;;;;;;0.00;0.00;;;;;;;3.72;82.41;94118.92;106693;1275;24247;-78
2023/11/12 00:45:10;;;;;;;0.00;0.00;;;;;;;3.68;82.95;94114.44;106642;1275;22511;-79
2023/11/12 00:47:38;;;;;;;0.10;0.00;;;;;;;3.67;82.53;94113.08;106639;1275;25341;-78
2023/11/12 00:50:08;;;;;;;0.00;0.00;;;;;;;3.69;83.07;94114.23;106644;1275;22512;-79
2023/11/12 00:52:36;;;;;;;0.00;0.00;;;;;;;3.65;83.31;94113.10;106668;1274;24254;-80
2023/11/12 00:55:05;;;;;;;0.10;0.10;;;;;;;3.67;83.27;94105.95;106673;1275;24284;-80
2023/11/12 00:57:34;;;;;;;0.50;0.10;;;;;;;3.68;83.13;94106.42;106630;1275;24226;-79
2023/11/12 01:00:04;;;;;;;0.60;0.10;;;;;;;3.67;82.92;94107.67;106600;1275;22784;-80
2023/11/12 01:02:32;;;;;;;0.20;0.10;;;;;;;3.66;83.46;94104.40;106762;1275;22528;-79
2023/11/12 01:05:01;;;;;;;0.10;0.10;;;;;;;3.65;83.64;94110.67;106664;1275;25420;-79
2023/11/12 01:07:29;;;;;;;0.10;0.10;;;;;;;3.63;83.53;94109.48;106655;1275;25332;-79
2023/11/12 01:09:59;;;;;;;0.10;0.10;;;;;;;3.63;83.45;94112.43;106592;1275;24214;-79
2023/11/12 01:12:27;;;;;;;0.00;0.00;;;;;;;3.61;83.69;94110.04;106619;1275;22630;-79
2023/11/12 01:14:56;;;;;;;0.10;0.10;;;;;;;3.60;83.80;94115.27;106458;1275;324070;-79
2023/11/12 01:17:24;;;;;;;0.10;0.10;;;;;;;3.57;83.80;94120.88;106654;1275;25542;-79
2023/11/12 01:19:52;;;;;;;0.00;0.00;;;;;;;3.56;83.33;94125.94;106629;1275;22512;-78
2023/11/12 01:22:20;;;;;;;0.10;0.10;;;;;;;3.56;83.28;94124.20;106627;1275;26669;-77
2023/11/12 01:24:48;;;;;;;0.00;0.00;;;;;;;3.59;83.57;94122.77;106603;1275;24379;-78
2023/11/12 01:27:17;;;;;;;0.10;0.10;;;;;;;3.60;83.04;94123.45;106627;1275;22534;-79
2023/11/12 01:29:45;;;;;;;0.00;0.00;;;;;;;3.59;82.72;94123.80;106686;1275;22641;-78
2023/11/12 01:32:13;;;;;;;0.10;0.00;;;;;;;3.60;82.26;94114.75;106592;1275;22643;-79
2023/11/12 01:34:41;;;;;;;0.10;0.10;;;;;;;3.60;82.51;94119.79;106652;1275;25416;-79
2023/11/12 01:37:09;;;;;;;0.10;0.10;;;;;;;3.59;83.08;94127.45;106676;1275;22520;-78
2023/11/12 01:39:38;;;;;;;0.10;0.10;;;;;;;3.62;82.67;94129.85;106479;1275;24273;-80
2023/11/12 01:42:11;;;;;;;0.10;0.10;;;;;;;3.60;81.86;94127.10;106613;1275;22547;-79
2023/11/12 01:44:43;;;;;;;0.20;0.10;;;;;;;3.60;82.27;94131.09;106658;1275;22524;-78
2023/11/12 01:47:14;;;;;;;0.00;0.00;;;;;;;3.59;81.97;94142.77;106625;1275;25335;-77
2023/11/12 01:49:42;;;;;;;0.10;0.10;;;;;;;3.53;82.34;94133.63;106596;1275;22527;-77
2023/11/12 01:52:11;;;;;;;0.50;0.00;;;;;;;3.52;82.81;94143.05;106614;1275;22520;-78
2023/11/12 01:54:40;;;;;;;0.10;0.10;;;;;;;3.53;82.92;94145.10;106601;1274;24891;-77
2023/11/12 01:57:10;;;;;;;0.00;0.00;;;;;;;3.51;82.75;94148.77;106674;1275;22560;-78
2023/11/12 01:59:38;;;;;;;0.00;0.00;;;;;;;3.49;83.22;94144.98;106644;1274;24278;-77
2023/11/12 02:02:07;;;;;;;0.20;0.10;;;;;;;3.50;82.44;94140.63;106711;1274;24208;-77
2023/11/12 02:04:36;;;;;;;1.20;0.10;;;;;;;3.48;82.76;94140.48;106726;1274;22916;-77
2023/11/12 02:07:05;;;;;;;0.10;0.00;;;;;;;3.46;83.35;94146.05;106657;1274;22528;-79
2023/11/12 02:09:33;;;;;;;0.20;0.10;;;;;;;3.46;83.00;94154.40;106652;1274;22533;-78
2023/11/12 02:12:01;;;;;;;0.10;0.00;;;;;;;3.46;83.03;94144.16;106622;1271;22520;-78
2023/11/12 02:14:31;;;;;;;0.10;0.10;;;;;;;3.44;82.92;94148.70;106630;1274;22536;-79
2023/11/12 02:16:59;;;;;;;0.10;0.10;;;;;;;3.42;83.19;94148.58;106639;1274;25265;-79
2023/11/12 02:19:29;;;;;;;0.10;0.10;;;;;;;3.39;82.91;94156.77;106675;1274;23913;-78
2023/11/12 02:21:58;;;;;;;0.00;0.00;;;;;;;3.35;83.48;94155.80;106657;1265;22517;-77
2023/11/12 02:24:26;;;;;;;0.20;0.10;;;;;;;3.33;83.23;94160.68;106621;1274;22608;-77
2023/11/12 02:26:54;;;;;;;0.00;0.00;;;;;;;3.31;83.63;94172.89;106637;1275;22737;-77
2023/11/12 02:29:23;;;;;;;0.00;0.00;;;;;;;3.29;83.97;94167.87;106755;1274;25495;-78
2023/11/12 02:31:52;;;;;;;0.10;0.10;;;;;;;3.27;84.34;94184.23;106611;1253;24295;-78
2023/11/12 02:34:21;;;;;;;0.00;0.00;;;;;;;3.28;84.26;94181.10;106662;1274;22797;-78
2023/11/12 02:36:50;;;;;;;0.10;0.10;;;;;;;3.29;84.06;94184.91;106581;1274;22536;-77
2023/11/12 02:39:20;;;;;;;0.00;0.00;;;;;;;3.29;83.98;94184.73;106680;1274;22656;-78
2023/11/12 02:41:49;;;;;;;0.00;0.00;;;;;;;3.30;83.76;94185.23;106659;1274;22516;-77
2023/11/12 02:44:17;;;;;;;0.00;0.00;;;;;;;3.29;83.74;94190.81;106605;1274;25155;-78
2023/11/12 02:46:45;;;;;;;0.00;0.00;;;;;;;3.27;83.46;94187.17;106631;1274;22554;-77
2023/11/12 02:49:42;;;;;;;0.00;0.00;;;;;;;3.28;84.01;94197.61;106658;1274;23886;-78
2023/11/12 02:52:10;;;;;;;0.00;0.00;;;;;;;3.26;84.44;94197.96;106652;1274;22519;-78
2023/11/12 02:54:39;;;;;;;0.90;0.10;;;;;;;3.25;83.70;94201.81;106660;1274;22605;-79
2023/11/12 02:57:07;;;;;;;0.00;0.00;;;;;;;3.26;84.11;94203.02;106625;1274;24218;-77
2023/11/12 02:59:36;;;;;;;0.00;0.00;;;;;;;3.28;84.31;94208.91;106744;1274;22534;-78
2023/11/12 03:02:04;;;;;;;0.00;0.00;;;;;;;3.30;83.91;94212.52;106631;1265;24330;-77
2023/11/12 03:04:32;;;;;;;0.00;0.00;;;;;;;3.29;83.61;94213.92;106696;1274;25545;-78
2023/11/12 03:07:00;;;;;;;0.50;0.00;;;;;;;3.25;83.69;94220.39;106641;1274;25176;-79
2023/11/12 03:09:30;;;;;;;0.00;0.00;;;;;;;3.23;83.80;94218.33;106621;1274;25334;-79
2023/11/12 03:11:58;;;;;;;0.70;0.00;;;;;;;3.25;83.69;94221.95;106685;1274;22533;-79
2023/11/12 03:14:26;;;;;;;0.00;0.00;;;;;;;3.29;84.05;94228.54;106696;1274;22906;-79
2023/11/12 03:16:54;;;;;;;0.00;0.00;;;;;;;3.28;84.35;94231.48;106638;1274;22638;-78
2023/11/12 03:19:23;;;;;;;0.00;0.00;;;;;;;3.24;84.03;94235.70;106662;1275;23875;-78
2023/11/12 03:21:55;;;;;;;0.00;0.00;;;;;;;3.24;83.71;94244.73;106615;1274;22590;-78
2023/11/12 03:24:23;;;;;;;0.00;0.00;;;;;;;3.22;83.88;94242.86;106629;1265;24236;-78
2023/11/12 03:26:52;;;;;;;0.00;0.00;;;;;;;3.21;84.42;94247.39;106622;1275;22534;-77
2023/11/12 03:29:23;;;;;;;0.40;0.00;;;;;;;3.20;83.83;94254.52;106678;1274;24278;-78
2023/11/12 03:31:55;;;;;;;0.00;0.00;;;;;;;3.16;84.04;94255.95;106629;1272;22550;-78
2023/11/12 03:34:24;;;;;;;0.00;0.00;;;;;;;3.12;84.29;94266.61;106634;1274;22530;-78
2023/11/12 03:36:53;;;;;;;0.00;0.00;;;;;;;3.06;84.75;94268.75;106487;1274;22525;-79
2023/11/12 03:39:22;;;;;;;0.00;0.00;;;;;;;3.07;84.65;94271.00;106595;1274;22530;-81
2023/11/12 03:41:51;;;;;;;0.00;0.00;;;;;;;3.07;85.00;94270.30;106667;1274;26528;-80
2023/11/12 03:44:19;;;;;;;0.00;0.00;;;;;;;3.08;84.99;94277.60;106645;1275;22517;-79
2023/11/12 03:46:47;;;;;;;0.00;0.00;;;;;;;2.99;85.56;94275.44;106648;1274;22511;-79
2023/11/12 03:49:16;;;;;;;0.00;0.00;;;;;;;2.98;85.44;94278.40;106668;1275;22518;-78
2023/11/12 03:51:45;;;;;;;0.10;0.10;;;;;;;2.98;85.47;94280.65;106668;1275;25368;-81
2023/11/12 03:54:13;;;;;;;0.00;0.00;;;;;;;3.01;85.89;94283.58;106586;1275;22599;-81
2023/11/12 03:56:41;;;;;;;0.10;0.00;;;;;;;3.01;86.11;94286.01;106639;1275;24254;-80
2023/11/12 03:59:09;;;;;;;0.00;0.00;;;;;;;3.03;85.50;94290.33;106620;1275;22607;-80
2023/11/12 04:01:37;;;;;;;0.00;0.00;;;;;;;3.05;85.17;94293.61;106649;1275;25225;-81
2023/11/12 04:04:06;;;;;;;0.10;0.00;;;;;;;3.06;85.36;94298.46;106665;1274;24277;-78
2023/11/12 04:06:35;;;;;;;0.20;0.10;;;;;;;3.11;85.33;94304.84;106701;1275;22548;-79
2023/11/12 04:09:03;;;;;;;0.10;0.10;;;;;;;3.10;85.72;94312.85;106504;1258;24522;-78
2023/11/12 04:11:32;;;;;;;0.00;0.00;;;;;;;3.11;85.28;94310.91;106698;1275;25293;-79
2023/11/12 04:14:00;;;;;;;0.00;0.00;;;;;;;3.09;85.17;94317.36;106640;1275;24449;-79
2023/11/12 04:16:28;;;;;;;0.00;0.00;;;;;;;3.09;85.05;94317.36;106688;1275;24360;-80
2023/11/12 04:18:56;;;;;;;0.00;0.00;;;;;;;3.11;85.14;94325.69;106694;1275;24238;-78
2023/11/12 04:21:25;;;;;;;0.00;0.00;;;;;;;3.05;85.67;94331.66;106683;1275;22657;-80
2023/11/12 04:23:53;;;;;;;0.10;0.10;;;;;;;3.07;85.57;94333.89;106657;1275;22570;-81
2023/11/12 04:26:21;;;;;;;0.00;0.00;;;;;;;3.06;85.78;94337.20;106618;1275;22517;-78
2023/11/12 04:28:49;;;;;;;0.00;0.00;;;;;;;3.03;85.33;94339.48;106522;1275;22647;-80
2023/11/12 04:31:17;;;;;;;0.00;0.00;;;;;;;3.01;85.56;94336.21;106678;1275;22514;-81
2023/11/12 04:33:46;;;;;;;0.00;0.00;;;;;;;3.02;85.30;94341.24;106636;1275;25434;-80
2023/11/12 04:36:14;;;;;;;0.10;0.00;;;;;;;3.05;85.45;94345.21;106688;1275;22643;-81
2023/11/12 04:38:44;;;;;;;1.00;0.00;;;;;;;3.08;85.39;94351.27;106688;1275;23104;-81
2023/11/12 04:41:12;;;;;;;0.00;0.00;;;;;;;3.10;85.75;94353.15;106694;1275;25963;-81
2023/11/12 04:43:40;;;;;;;0.10;0.10;;;;;;;3.11;85.62;94356.95;106673;1275;22520;-81
2023/11/12 04:46:08;;;;;;;0.10;0.10;;;;;;;3.13;85.22;94356.77;106683;1275;25415;-80
2023/11/12 04:48:36;;;;;;;0.30;0.10;;;;;;;3.11;85.23;94364.60;106605;1275;25732;-81
2023/11/12 04:51:08;;;;;;;0.00;0.00;;;;;;;3.08;85.13;94370.54;106657;1275;24478;-79
2023/11/12 04:53:37;;;;;;;0.30;0.10;;;;;;;3.05;85.15;94369.88;106671;1275;22646;-82
2023/11/12 04:56:10;;;;;;;0.10;0.10;;;;;;;3.06;85.24;94378.73;106611;1275;22761;-80
2023/11/12 04:58:38;;;;;;;1.10;0.50;;;;;;;3.01;84.66;94384.52;106704;1275;24350;-81
2023/11/12 05:01:07;;;;;;;1.50;0.80;;;;;;;2.96;84.84;94389.41;106603;1275;24254;-82
2023/11/12 05:03:35;;;;;;;1.80;0.30;;;;;;;2.93;85.33;94390.65;106612;1275;25297;-80
2023/11/12 05:06:04;;;;;;;1.30;0.30;;;;;;;2.92;85.33;94391.35;106713;1275;22526;-79
2023/11/12 05:08:32;;;;;;;1.00;0.40;;;;;;;2.89;85.88;94401.10;106671;1275;24608;-80
2023/11/12 05:11:00;;;;;;;0.60;0.50;;;;;;;2.91;85.79;94405.78;106630;1263;25332;-81
2023/11/12 05:13:29;;;;;;;1.10;0.70;;;;;;;2.91;85.67;94410.98;106846;1275;22920;-81
2023/11/12 05:15:57;;;;;;;1.70;0.70;;;;;;;2.91;86.03;94411.86;106659;1275;24226;-81
2023/11/12 05:18:25;;;;;;;0.60;0.30;;;;;;;2.93;86.08;94418.80;106647;1275;22550;-81
2023/11/12 05:20:53;;;;;;;0.80;0.40;;;;;;;2.95;86.04;94423.13;106553;1275;24252;-82
2023/11/12 05:23:21;;;;;;;1.70;0.50;;;;;;;2.92;85.96;94420.89;106639;1275;22536;-78
2023/11/12 05:25:51;;;;;;;5.10;2.30;;;;;;;2.94;85.92;94428.67;106653;1275;25490;-82
2023/11/12 05:28:19;;;;;;;4.80;2.40;;;;;;;2.96;85.93;94429.37;106680;1275;22749;-81
2023/11/12 05:30:47;;;;;;;1.20;0.80;;;;;;;2.99;86.14;94435.42;106687;1275;24275;-81
2023/11/12 05:33:15;;;;;;;2.10;0.90;;;;;;;3.03;85.84;94440.25;106669;1275;25453;-81
2023/11/12 05:35:43;;;;;;;1.60;1.00;;;;;;;3.04;86.08;94441.28;106688;1275;22752;-80
2023/11/12 05:38:11;;;;;;;1.30;1.00;;;;;;;3.03;85.72;94445.11;106691;1275;25304;-80
2023/11/12 05:40:40;;;;;;;3.50;0.30;;;;;;;3.05;85.64;94442.48;106714;1275;24354;-80
2023/11/12 05:43:08;;;;;;;0.10;0.10;;;;;;;3.06;85.01;94455.35;106699;1275;24253;-81
2023/11/12 05:45:36;;;;;;;0.40;0.30;;;;;;;3.07;85.00;94456.55;106668;1275;22510;-81
2023/11/12 05:48:05;;;;;;;0.20;0.20;;;;;;;3.08;85.42;94466.46;106661;1275;22787;-80
2023/11/12 05:50:33;;;;;;;0.10;0.10;;;;;;;3.07;85.34;94470.10;106633;1274;24366;-80
2023/11/12 05:53:01;;;;;;;0.50;0.30;;;;;;;3.08;85.11;94473.23;106633;1274;22534;-81
2023/11/12 05:55:29;;;;;;;0.50;0.30;;;;;;;3.07;85.11;94480.52;106684;1275;24262;-81
2023/11/12 05:57:57;;;;;;;0.80;0.50;;;;;;;3.06;84.96;94484.52;106624;1274;22535;-81
2023/11/12 06:00:26;;;;;;;1.10;0.80;;;;;;;3.07;85.12;94492.17;106697;1275;24271;-80
2023/11/12 06:02:55;;;;;;;0.80;0.50;;;;;;;3.04;84.52;94500.19;106716;1275;22721;-77
2023/11/12 06:05:23;;;;;;;0.40;0.20;;;;;;;3.00;84.90;94501.42;106629;1273;22550;-81
2023/11/12 06:07:51;;;;;;;0.90;0.50;;;;;;;3.04;85.05;94510.26;106741;1274;22533;-81
2023/11/12 06:10:19;;;;;;;0.40;0.40;;;;;;;3.04;84.95;94517.02;106720;1274;24851;-82
2023/11/12 06:12:47;;;;;;;0.60;0.40;;;;;;;3.05;85.07;94520.85;106615;1274;22517;-81
2023/11/12 06:15:16;;;;;;;0.70;0.50;;;;;;;3.05;85.31;94528.14;106620;1274;22514;-81
2023/11/12 06:17:45;;;;;;;0.40;0.30;;;;;;;3.06;84.97;94538.21;106659;1274;24232;-81
2023/11/12 06:20:13;;;;;;;1.40;1.10;;;;;;;3.08;84.88;94542.90;106643;1273;22798;-79
2023/11/12 06:22:41;;;;;;;3.70;2.00;;;;;;;3.11;85.09;94549.83;106667;1253;24288;-82
2023/11/12 06:25:11;;;;;;;1.70;1.30;;;;;;;3.11;85.04;94555.21;106741;1274;24265;-81
2023/11/12 06:27:40;;;;;;;0.70;0.60;;;;;;;3.13;85.09;94557.80;106658;1275;24219;-78
2023/11/12 06:30:09;;;;;;;0.40;0.40;;;;;;;3.15;85.02;94558.48;106753;1274;22520;-82
2023/11/12 06:32:38;;;;;;;1.20;0.30;;;;;;;3.12;85.09;94562.50;106612;1274;24081;-80
2023/11/12 06:35:07;;;;;;;0.80;0.50;;;;;;;3.09;84.69;94563.04;106711;1274;22647;-79
2023/11/12 06:37:35;;;;;;;0.60;0.60;;;;;;;3.12;84.36;94572.77;106683;1275;22657;-82
2023/11/12 06:40:03;;;;;;;0.70;0.60;;;;;;;3.16;84.66;94576.71;106633;1274;22467;-80
2023/11/12 06:42:32;;;;;;;0.50;0.40;;;;;;;3.21;84.70;94583.81;106607;1274;22739;-81
2023/11/12 06:45:00;;;;;;;0.30;0.30;;;;;;;3.25;84.80;94583.95;106680;1275;22931;-79
2023/11/12 06:47:28;;;;;;;2.20;1.00;;;;;;;3.30;84.58;94580.80;106729;1274;22531;-81
2023/11/12 06:49:56;;;;;;;1.20;0.50;;;;;;;3.33;84.25;94589.98;106536;1275;22539;-80
2023/11/12 06:52:25;;;;;;;0.60;0.50;;;;;;;3.34;83.62;94592.42;106644;1274;24425;-79
2023/11/12 06:54:53;;;;;;;2.20;1.10;;;;;;;3.36;83.96;94596.58;106694;1274;22538;-79
2023/11/12 06:57:21;;;;;;;0.90;0.60;;;;;;;3.37;83.41;94601.78;106732;1274;22602;-80
2023/11/12 06:59:49;;;;;;;0.30;0.20;;;;;;;3.40;83.61;94605.59;106716;1274;22982;-80
2023/11/12 07:02:17;;;;;;;0.60;0.50;;;;;;;3.42;82.59;94604.89;106708;1274;22524;-80
2023/11/12 07:04:47;;;;;;;0.90;0.40;;;;;;;3.42;82.99;94606.61;106672;1274;22535;-80
2023/11/12 07:07:15;;;;;;;0.30;0.30;;;;;;;3.41;83.03;94612.00;106690;1274;22944;-80
2023/11/12 07:09:45;;;;;;;0.20;0.20;;;;;;;3.41;83.14;94615.30;106698;1275;22666;-78
2023/11/12 07:12:14;;;;;;;0.30;0.20;;;;;;;3.40;82.22;94616.01;106924;1274;22523;-79
2023/11/12 07:14:43;;;;;;;0.60;0.30;;;;;;;3.35;81.96;94619.35;106745;1274;25310;-79
2023/11/12 07:17:11;;;;;;;1.40;0.60;;;;;;;3.42;83.03;94620.70;106684;1274;25405;-80
2023/11/12 07:19:43;;;;;;;0.70;0.20;;;;;;;3.46;83.10;94628.48;106713;1274;25506;-79
2023/11/12 07:22:11;;;;;;;0.70;0.30;;;;;;;3.44;81.64;94629.38;106674;1274;25244;-80
2023/11/12 07:24:39;;;;;;;1.50;0.40;;;;;;;3.49;82.63;94634.39;106717;1275;22557;-79
2023/11/12 07:27:07;;;;;;;0.40;0.20;;;;;;;3.53;82.79;94637.48;106703;1274;24391;-79
2023/11/12 07:29:35;;;;;;;0.60;0.20;;;;;;;3.51;81.39;94640.45;106632;1274;25495;-79
2023/11/12 07:32:04;;;;;;;0.70;0.50;;;;;;;3.48;81.40;94644.64;106725;1273;22530;-78
2023/11/12 07:34:32;;;;;;;0.90;0.60;;;;;;;3.45;81.46;94647.63;106761;1274;22582;-79
2023/11/12 07:37:01;;;;;;;1.20;0.50;;;;;;;3.44;81.99;94649.70;106533;1274;26525;-80
2023/11/12 07:39:29;;;;;;;2.80;1.30;;;;;;;3.45;82.37;94655.45;106702;1274;22537;-79
2023/11/12 07:41:57;;;;;;;9.10;4.60;;;;;;;3.50;82.80;94657.14;106704;1274;24386;-78
2023/11/12 07:44:26;;;;;;;4.60;2.50;;;;;;;3.49;81.46;94661.85;106652;1274;22542;-80
2023/11/12 07:46:54;;;;;;;4.90;2.10;;;;;;;3.49;81.78;94667.77;106611;1274;22660;-78
2023/11/12 07:49:23;;;;;;;53.50;23.80;;;;;;;3.47;81.14;94670.21;106571;1274;22539;-79
2023/11/12 07:51:52;;;;;;;10.00;5.30;;;;;;;3.42;81.08;94669.89;106644;1274;22527;-78
2023/11/12 07:54:20;;;;;;;1.10;0.80;;;;;;;3.41;80.98;94675.11;106727;1274;22551;-80
2023/11/12 07:56:48;;;;;;;6.50;3.60;;;;;;;3.36;81.21;94678.09;106898;1274;22615;-80
2023/11/12 07:59:16;;;;;;;3.10;1.90;;;;;;;3.41;82.14;94679.63;106685;1274;24393;-80
2023/11/12 08:01:48;;;;;;;2.00;1.80;;;;;;;3.45;81.92;94683.09;106645;1274;23051;-81
2023/11/12 08:04:17;;;;;;;1.50;1.00;;;;;;;3.50;82.06;94685.31;106649;1275;25490;-80
2023/11/12 08:06:49;;;;;;;1.00;0.80;;;;;;;3.50;81.11;94694.19;106695;1274;22577;-79
2023/11/12 08:09:17;;;;;;;1.40;1.20;;;;;;;3.46;80.85;94694.71;106723;1275;22536;-80
2023/11/12 08:11:45;;;;;;;1.50;1.20;;;;;;;3.53;81.95;94698.17;106698;1275;24343;-79
2023/11/12 08:14:14;;;;;;;0.30;0.30;;;;;;;3.51;81.31;94702.70;106621;1275;22548;-79
2023/11/12 08:16:43;;;;;;;0.70;0.60;;;;;;;3.40;81.53;94705.54;106696;1275;22712;-79
2023/11/12 08:19:11;;;;;;;2.70;2.30;;;;;;;3.30;81.74;94715.50;106627;1275;22610;-79
2023/11/12 08:21:39;;;;;;;3.20;1.70;;;;;;;3.21;82.36;94718.33;106688;1275;22537;-78
2023/11/12 08:24:07;;;;;;;2.80;0.90;;;;;;;3.12;82.60;94727.21;106634;1275;24379;-79
2023/11/12 08:26:38;;;;;;;7.00;5.30;;;;;;;3.06;83.12;94735.41;106543;1275;22521;-80
2023/11/12 08:29:07;;;;;;;7.20;4.70;;;;;;;3.06;84.05;94743.75;106725;1275;25308;-80
2023/11/12 08:31:36;;;;;;;4.40;1.70;;;;;;;3.10;83.69;94746.70;106754;1275;25301;-80
2023/11/12 08:34:05;;;;;;;5.30;4.10;;;;;;;3.12;83.86;94755.89;106781;1253;25527;-79
2023/11/12 08:36:34;;;;;;;3.10;1.90;;;;;;;3.05;83.20;94759.23;106741;1275;22543;-80
2023/11/12 08:39:05;;;;;;;8.10;5.10;;;;;;;3.00;83.60;94763.75;106714;1275;24422;-81
2023/11/12 08:41:33;;;;;;;2.00;1.50;;;;;;;3.02;83.98;94766.87;106693;1263;22656;-81
2023/11/12 08:44:02;;;;;;;1.30;1.00;;;;;;;3.16;84.77;94771.00;106674;1274;23932;-82
2023/11/12 08:46:30;;;;;;;2.10;1.20;;;;;;;3.24;84.83;94772.18;106613;1275;25295;-79
2023/11/12 08:48:59;;;;;;;2.90;1.10;;;;;;;3.21;84.95;94772.02;106693;1275;25358;-80
2023/11/12 08:51:27;;;;;;;2.50;1.30;;;;;;;3.28;84.70;94777.55;106704;1275;23894;-80
2023/11/12 08:53:55;;;;;;;1.90;1.40;;;;;;;3.31;84.34;94780.85;106711;1275;24296;-81
2023/11/12 08:56:23;;;;;;;1.50;0.80;;;;;;;3.32;84.34;94783.63;106664;1275;24891;-79
2023/11/12 08:58:52;;;;;;;1.20;1.10;;;;;;;3.29;83.32;94785.73;106696;1275;25294;-80
2023/11/12 09:01:20;;;;;;;1.00;0.90;;;;;;;3.31;83.18;94786.77;106676;1259;25647;-78
2023/11/12 09:03:48;;;;;;;1.80;1.40;;;;;;;3.38;83.65;94783.95;106711;1275;22531;-81
2023/11/12 09:06:17;;;;;;;1.40;1.30;;;;;;;3.47;84.01;94785.48;106723;1275;22534;-80
2023/11/12 09:08:45;;;;;;;2.30;1.40;;;;;;;3.60;84.41;94784.20;106680;1275;22552;-80
2023/11/12 09:11:14;;;;;;;2.20;1.50;;;;;;;3.81;85.33;94787.23;106706;1275;24270;-81
2023/11/12 09:13:43;;;;;;;3.00;2.20;;;;;;;4.03;85.14;94786.74;106647;1275;22621;-82
2023/11/12 09:16:12;;;;;;;2.70;1.90;;;;;;;4.16;84.37;94788.74;106688;1263;22654;-82
2023/11/12 09:18:41;;;;;;;3.40;1.70;;;;;;;4.22;83.57;94792.17;106781;1275;22546;-81
2023/11/12 09:21:09;;;;;;;3.30;2.20;;;;;;;4.27;83.63;94795.63;106636;1275;24400;-80
2023/11/12 09:23:38;;;;;;;3.30;2.20;;;;;;;4.29;84.17;94792.14;106637;1275;24409;-80
2023/11/12 09:26:07;;;;;;;3.00;1.60;;;;;;;4.29;83.70;94799.27;106574;1275;22519;-81
2023/11/12 09:28:36;;;;;;;2.00;1.80;;;;;;;4.27;83.22;94804.16;106696;1275;24402;-80
2023/11/12 09:31:05;;;;;;;2.40;2.10;;;;;;;4.27;83.26;94805.73;106705;1275;22546;-78
2023/11/12 09:33:33;;;;;;;3.90;2.70;;;;;;;4.23;82.70;94810.45;106714;1275;22528;-80
2023/11/12 09:36:02;;;;;;;2.80;1.80;;;;;;;4.18;82.46;94813.63;106695;1275;24407;-80
2023/11/12 09:38:30;;;;;;;3.10;1.80;;;;;;;4.11;82.98;94814.89;106768;1275;22625;-79
2023/11/12 09:40:59;;;;;;;4.30;2.50;;;;;;;4.06;82.59;94820.48;106786;1275;25552;-78
2023/11/12 09:43:29;;;;;;;4.70;2.90;;;;;;;3.97;82.94;94820.71;106698;1275;24273;-80
2023/11/12 09:45:57;;;;;;;3.60;2.60;;;;;;;3.96;82.85;94821.77;106733;1275;24303;-80
2023/11/12 09:48:38;;;;;;;4.00;2.60;;;;;;;3.95;82.74;94827.34;106648;1275;24395;-81
2023/11/12 09:51:09;;;;;;;3.80;2.90;;;;;;;3.95;82.56;94829.08;106591;1275;22530;-80
2023/11/12 09:53:39;;;;;;;6.30;3.70;;;;;;;3.98;83.17;94828.71;106733;1275;24249;-79
2023/11/12 09:56:09;;;;;;;5.70;3.80;;;;;;;4.05;83.64;94828.69;106661;1275;22984;-78
2023/11/12 09:58:41;;;;;;;3.30;2.70;;;;;;;4.10;83.00;94832.30;106584;1275;25368;-80
2023/11/12 10:01:13;;;;;;;5.70;3.00;;;;;;;4.23;82.98;94829.25;106804;1275;25350;-78
2023/11/12 10:03:48;;;;;;;3.80;2.60;;;;;;;4.30;82.34;94834.96;106712;1275;22521;-79
2023/11/12 10:06:22;;;;;;;4.60;3.00;;;;;;;4.48;82.86;94830.66;106702;1275;26604;-80
2023/11/12 10:08:50;;;;;;;3.40;2.50;;;;;;;4.69;82.15;94831.54;106765;1275;22538;-79
2023/11/12 10:11:23;;;;;;;2.90;2.30;;;;;;;4.92;82.19;94828.20;106739;1275;25297;-80
2023/11/12 10:13:52;;;;;;;4.20;3.00;;;;;;;5.22;81.64;94826.67;106697;1275;24242;-80
2023/11/12 10:16:31;;;;;;;102.40;51.90;;;;;;;5.54;81.45;94821.11;106703;1275;24272;-80
2023/11/12 10:19:13;;;;;;;4.60;3.90;;;;;;;5.78;80.13;94821.17;106673;1275;22643;-79
2023/11/12 10:21:52;;;;;;;11.40;9.40;;;;;;;6.02;79.51;94818.96;106788;1274;25762;-79
2023/11/12 10:24:20;;;;;;;3.10;2.40;;;;;;;6.63;76.49;94819.98;106701;1274;22789;-78
2023/11/12 10:26:53;;;;;;;4.50;4.00;;;;;;;7.01;74.54;94819.90;106588;1275;25382;-79
2023/11/12 10:29:23;;;;;;;1.80;1.50;;;;;;;7.06;72.82;94822.42;106800;1254;22523;-79
2023/11/12 10:31:51;;;;;;;2.70;2.10;;;;;;;6.93;72.29;94824.93;106797;1274;25466;-79
2023/11/12 10:34:22;;;;;;;5.40;4.80;;;;;;;6.94;72.45;94827.38;106762;1274;22811;-79
2023/11/12 10:37:17;;;;;;;4.40;2.30;;;;;;;6.90;73.67;94829.88;106700;1275;22537;-80
2023/11/12 10:39:46;;;;;;;2.90;2.20;;;;;;;6.90;73.75;94829.35;106690;1274;22526;-80
2023/11/12 10:42:24;;;;;;;1.80;1.70;;;;;;;6.69;71.66;94834.41;106786;1275;22527;-79
2023/11/12 10:44:58;;;;;;;4.50;3.90;;;;;;;6.53;72.49;94836.05;106736;1275;22573;-80
2023/11/12 10:47:29;;;;;;;1.90;1.70;;;;;;;6.37;72.21;94838.22;106782;1274;24225;-81
2023/11/12 10:49:59;;;;;;;2.30;2.10;;;;;;;6.17;72.21;94838.15;106726;1274;25284;-81
2023/11/12 10:52:30;;;;;;;2.00;1.80;;;;;;;6.08;73.48;94845.08;106646;1272;25295;-81
2023/11/12 10:54:59;;;;;;;2.10;1.90;;;;;;;5.93;72.84;94848.74;106776;1274;25214;-79
2023/11/12 10:57:29;;;;;;;1.70;1.50;;;;;;;5.75;72.13;94854.71;106738;1275;22527;-81
2023/11/12 11:00:03;;;;;;;3.80;3.00;;;;;;;5.58;72.77;94859.61;106743;1275;24281;-81
2023/11/12 11:02:37;;;;;;;5.90;4.90;;;;;;;5.44;72.35;94864.47;106740;1274;22624;-81
2023/11/12 11:05:06;;;;;;;2.40;2.10;;;;;;;5.32;72.29;94865.30;106859;1274;24248;-80
2023/11/12 11:07:37;;;;;;;5.90;4.70;;;;;;;5.22;72.38;94874.29;106799;1274;24707;-81
2023/11/12 11:10:09;;;;;;;2.80;1.90;;;;;;;5.13;73.36;94876.45;106709;1274;24376;-80
2023/11/12 11:12:38;;;;;;;3.00;1.70;;;;;;;5.03;72.77;94882.48;106629;1275;22769;-80
2023/11/12 11:15:39;;;;;;;1.50;1.40;;;;;;;4.91;73.01;94886.77;106607;1274;22933;-80
2023/11/12 11:18:30;;;;;;;1.70;1.60;;;;;;;4.95;74.10;94886.90;106887;1274;23112;-80
2023/11/12 11:21:40;;;;;;;1.80;1.70;;;;;;;5.12;74.65;94889.89;106689;1274;22530;-80
2023/11/12 11:24:02;;;;;;;4.90;3.00;;;;;;;5.23;74.43;94893.29;106693;1274;25518;-82
2023/11/12 11:26:33;;;;;;;2.70;2.20;;;;;;;5.30;74.63;94895.48;106757;1253;24274;-80
2023/11/12 11:29:09;;;;;;;3.70;2.70;;;;;;;5.24;72.93;94898.52;106734;1274;24236;-80
2023/11/12 11:32:07;;;;;;;2.00;1.80;;;;;;;5.25;74.44;94895.90;106653;1275;22532;-81
2023/11/12 11:34:40;;;;;;;2.30;2.10;;;;;;;5.38;74.35;94900.29;106711;1274;22526;-81
2023/11/12 11:37:09;;;;;;;2.10;1.80;;;;;;;5.41;72.55;94896.23;106719;1274;24392;-81
2023/11/12 11:39:39;;;;;;;2.70;2.20;;;;;;;5.45;73.09;94894.46;106777;1274;22649;-80
2023/11/12 11:42:07;;;;;;;3.10;2.20;;;;;;;5.45;73.13;94903.88;106667;1274;25406;-81
2023/11/12 11:44:42;;;;;;;2.90;2.00;;;;;;;5.49;73.59;94905.77;106710;1274;22523;-81